sensor_id;sensor_type;location;lat;lon;timestamp;pressure;altitude;pressure_sealevel;temperature;humidity
12536;BME280;6334;48.696;2.114;2024-01-15T00:00:02;99386.90;;;0.03;84.47
12536;BME280;6334;48.696;2.114;2024-01-15T00:02:33;99377.31;;;0.10;84.37
12536;BME280;6334;48.696;2.114;2024-01-15T00:05:03;99379.53;;;-0.13;84.78
12536;BME280;6334;48.696;2.114;2024-01-15T00:07:46;99329.81;;;-0.28;84.32
12536;BME280;6334;48.696;2.114;2024-01-15T00:10:17;99387.52;;;0.44;82.89
12536;BME280;6334;48.696;2.114;2024-01-15T00:12:49;99378.00;;;0.38;82.65
12536;BME280;6334;48.696;2.114;2024-01-15T00:15:19;99376.80;;;0.63;82.14
12536;BME280;6334;48.696;2.114;2024-01-15T00:17:52;99374.05;;;0.36;83.28
12536;BME280;6334;48.696;2.114;2024-01-15T00:20:22;99375.81;;;0.54;82.22
12536;BME280;6334;48.696;2.114;2024-01-15T00:22:54;99356.86;;;0.26;83.69
12536;BME280;6334;48.696;2.114;2024-01-15T00:25:24;99364.90;;;0.42;83.10
12536;BME280;6334;48.696;2.114;2024-01-15T00:27:54;99366.80;;;0.57;82.35
12536;BME280;6334;48.696;2.114;2024-01-15T00:30:24;99366.17;;;0.68;81.91
12536;BME280;6334;48.696;2.114;2024-01-15T00:32:54;99363.63;;;0.78;81.60
12536;BME280;6334;48.696;2.114;2024-01-15T00:35:24;99360.39;;;0.24;83.12
12536;BME280;6334;48.696;2.114;2024-01-15T00:37:55;99364.55;;;0.74;82.18
12536;BME280;6334;48.696;2.114;2024-01-15T00:40:26;99359.52;;;0.48;83.15
12536;BME280;6334;48.696;2.114;2024-01-15T00:42:55;99353.56;;;0.69;82.14
12536;BME280;6334;48.696;2.114;2024-01-15T00:45:25;99348.67;;;-0.17;84.36
12536;BME280;6334;48.696;2.114;2024-01-15T00:47:56;99340.97;;;0.09;83.60
12536;BME280;6334;48.696;2.114;2024-01-15T00:50:26;99336.66;;;-0.15;85.20
12536;BME280;6334;48.696;2.114;2024-01-15T00:52:59;99331.79;;;-0.15;85.12
12536;BME280;6334;48.696;2.114;2024-01-15T00:55:28;99319.91;;;-0.23;85.09
12536;BME280;6334;48.696;2.114;2024-01-15T00:57:58;99321.36;;;-0.12;84.73
12536;BME280;6334;48.696;2.114;2024-01-15T01:00:31;99327.83;;;-0.15;84.70
12536;BME280;6334;48.696;2.114;2024-01-15T01:03:02;99319.98;;;0.02;84.61
12536;BME280;6334;48.696;2.114;2024-01-15T01:05:35;99316.34;;;-0.01;84.72
12536;BME280;6334;48.696;2.114;2024-01-15T01:08:05;99320.07;;;-0.20;85.26
12536;BME280;6334;48.696;2.114;2024-01-15T01:10:34;99312.33;;;0.03;84.72
12536;BME280;6334;48.696;2.114;2024-01-15T01:13:05;99307.38;;;-0.12;84.67
12536;BME280;6334;48.696;2.114;2024-01-15T01:15:35;99306.23;;;-0.26;85.95
12536;BME280;6334;48.696;2.114;2024-01-15T01:18:05;99301.65;;;-0.08;84.09
12536;BME280;6334;48.696;2.114;2024-01-15T01:20:35;99303.53;;;0.23;83.00
12536;BME280;6334;48.696;2.114;2024-01-15T01:23:06;99297.66;;;-0.03;84.01
12536;BME280;6334;48.696;2.114;2024-01-15T01:25:37;99293.86;;;-0.14;83.78
12536;BME280;6334;48.696;2.114;2024-01-15T01:28:08;99295.28;;;-0.13;84.97
12536;BME280;6334;48.696;2.114;2024-01-15T01:30:37;99295.20;;;0.11;84.04
12536;BME280;6334;48.696;2.114;2024-01-15T01:33:08;99295.30;;;-0.06;84.31
12536;BME280;6334;48.696;2.114;2024-01-15T01:35:39;99296.65;;;-0.17;84.51
12536;BME280;6334;48.696;2.114;2024-01-15T01:38:12;99295.68;;;0.15;83.52
12536;BME280;6334;48.696;2.114;2024-01-15T01:40:42;99286.10;;;-0.17;84.25
12536;BME280;6334;48.696;2.114;2024-01-15T01:43:12;99295.34;;;0.08;83.74
12536;BME280;6334;48.696;2.114;2024-01-15T01:45:41;99295.91;;;0.17;83.16
12536;BME280;6334;48.696;2.114;2024-01-15T01:48:11;99300.91;;;0.17;83.33
12536;BME280;6334;48.696;2.114;2024-01-15T01:50:40;99301.03;;;0.25;82.92
12536;BME280;6334;48.696;2.114;2024-01-15T01:53:10;99300.19;;;0.69;81.23
12536;BME280;6334;48.696;2.114;2024-01-15T01:55:41;99304.69;;;0.63;81.19
12536;BME280;6334;48.696;2.114;2024-01-15T01:58:10;99303.80;;;0.19;82.69
12536;BME280;6334;48.696;2.114;2024-01-15T02:00:41;99294.75;;;0.12;83.73
12536;BME280;6334;48.696;2.114;2024-01-15T02:03:11;99290.12;;;0.05;84.67
12536;BME280;6334;48.696;2.114;2024-01-15T02:05:42;99285.55;;;0.02;84.95
12536;BME280;6334;48.696;2.114;2024-01-15T02:08:15;99299.13;;;0.39;84.19
12536;BME280;6334;48.696;2.114;2024-01-15T02:10:45;99296.58;;;0.43;83.79
12536;BME280;6334;48.696;2.114;2024-01-15T02:13:18;99291.64;;;0.47;83.65
12536;BME280;6334;48.696;2.114;2024-01-15T02:15:48;99284.64;;;0.23;84.73
12536;BME280;6334;48.696;2.114;2024-01-15T02:18:19;99274.68;;;0.10;85.54
12536;BME280;6334;48.696;2.114;2024-01-15T02:20:49;99280.19;;;0.32;85.49
12536;BME280;6334;48.696;2.114;2024-01-15T02:23:18;99277.97;;;0.25;84.97
12536;BME280;6334;48.696;2.114;2024-01-15T02:25:48;99245.68;;;0.03;85.92
12536;BME280;6334;48.696;2.114;2024-01-15T02:28:17;99251.95;;;-0.02;86.89
12536;BME280;6334;48.696;2.114;2024-01-15T02:30:47;99250.84;;;-0.20;87.25
12536;BME280;6334;48.696;2.114;2024-01-15T02:33:19;99251.59;;;0.23;85.63
12536;BME280;6334;48.696;2.114;2024-01-15T02:35:49;99250.38;;;0.28;85.73
12536;BME280;6334;48.696;2.114;2024-01-15T02:38:18;99246.70;;;0.49;84.44
12536;BME280;6334;48.696;2.114;2024-01-15T02:40:55;99228.95;;;0.55;84.16
12536;BME280;6334;48.696;2.114;2024-01-15T02:43:25;99221.98;;;0.44;85.14
12536;BME280;6334;48.696;2.114;2024-01-15T02:45:57;99226.31;;;0.17;86.29
12536;BME280;6334;48.696;2.114;2024-01-15T02:48:28;99218.06;;;0.15;86.39
12536;BME280;6334;48.696;2.114;2024-01-15T02:50:58;99225.34;;;0.15;86.87
12536;BME280;6334;48.696;2.114;2024-01-15T02:53:28;99224.41;;;-0.03;87.31
12536;BME280;6334;48.696;2.114;2024-01-15T02:55:57;99212.80;;;-0.03;87.60
12536;BME280;6334;48.696;2.114;2024-01-15T02:58:27;99223.40;;;-0.28;88.45
12536;BME280;6334;48.696;2.114;2024-01-15T03:00:57;99232.38;;;0.14;87.01
12536;BME280;6334;48.696;2.114;2024-01-15T03:03:27;99240.81;;;0.62;85.49
12536;BME280;6334;48.696;2.114;2024-01-15T03:05:59;99256.77;;;0.29;85.96
12536;BME280;6334;48.696;2.114;2024-01-15T03:08:28;99255.34;;;0.81;84.12
12536;BME280;6334;48.696;2.114;2024-01-15T03:10:58;99259.69;;;0.33;84.57
12536;BME280;6334;48.696;2.114;2024-01-15T03:13:28;99259.76;;;-0.01;86.59
12536;BME280;6334;48.696;2.114;2024-01-15T03:15:59;99264.45;;;0.50;85.18
12536;BME280;6334;48.696;2.114;2024-01-15T03:18:28;99260.66;;;0.79;84.26
12536;BME280;6334;48.696;2.114;2024-01-15T03:20:59;99260.18;;;0.53;85.63
12536;BME280;6334;48.696;2.114;2024-01-15T03:23:29;99255.50;;;0.74;84.82
12536;BME280;6334;48.696;2.114;2024-01-15T03:26:02;99255.58;;;0.80;84.39
12536;BME280;6334;48.696;2.114;2024-01-15T03:28:32;99257.49;;;0.75;84.90
12536;BME280;6334;48.696;2.114;2024-01-15T03:31:02;99248.84;;;0.90;83.24
12536;BME280;6334;48.696;2.114;2024-01-15T03:33:32;99241.94;;;0.70;85.56
12536;BME280;6334;48.696;2.114;2024-01-15T03:36:03;99243.14;;;0.75;85.17
12536;BME280;6334;48.696;2.114;2024-01-15T03:38:34;99244.95;;;1.05;83.96
12536;BME280;6334;48.696;2.114;2024-01-15T03:41:04;99244.39;;;0.76;84.05
12536;BME280;6334;48.696;2.114;2024-01-15T03:43:34;99239.61;;;0.97;84.12
12536;BME280;6334;48.696;2.114;2024-01-15T03:46:05;99241.14;;;0.89;84.32
12536;BME280;6334;48.696;2.114;2024-01-15T03:48:35;99235.16;;;0.89;84.00
12536;BME280;6334;48.696;2.114;2024-01-15T03:51:05;99235.12;;;0.98;84.55
12536;BME280;6334;48.696;2.114;2024-01-15T03:53:34;99235.94;;;1.05;83.55
12536;BME280;6334;48.696;2.114;2024-01-15T03:56:10;99240.72;;;1.20;83.49
12536;BME280;6334;48.696;2.114;2024-01-15T03:58:40;99238.76;;;1.01;84.76
12536;BME280;6334;48.696;2.114;2024-01-15T04:01:11;99235.40;;;1.05;84.21
12536;BME280;6334;48.696;2.114;2024-01-15T04:03:44;99232.66;;;1.09;83.59
12536;BME280;6334;48.696;2.114;2024-01-15T04:06:18;99231.19;;;0.80;85.26
12536;BME280;6334;48.696;2.114;2024-01-15T04:08:48;99230.22;;;1.17;84.14
12536;BME280;6334;48.696;2.114;2024-01-15T04:11:17;99224.61;;;1.08;85.10
12536;BME280;6334;48.696;2.114;2024-01-15T04:13:50;99212.48;;;0.90;85.54
12536;BME280;6334;48.696;2.114;2024-01-15T04:16:20;99215.28;;;0.66;86.45
12536;BME280;6334;48.696;2.114;2024-01-15T04:18:53;99214.70;;;1.02;85.12
12536;BME280;6334;48.696;2.114;2024-01-15T04:21:23;99211.50;;;0.90;85.67
12536;BME280;6334;48.696;2.114;2024-01-15T04:23:53;99218.36;;;1.06;85.01
12536;BME280;6334;48.696;2.114;2024-01-15T04:26:22;99212.15;;;1.13;84.91
12536;BME280;6334;48.696;2.114;2024-01-15T04:28:54;99211.63;;;0.93;85.63
12536;BME280;6334;48.696;2.114;2024-01-15T04:31:25;99209.39;;;1.15;84.24
12536;BME280;6334;48.696;2.114;2024-01-15T04:33:54;99202.55;;;0.87;85.83
12536;BME280;6334;48.696;2.114;2024-01-15T04:36:24;99196.72;;;1.04;85.18
12536;BME280;6334;48.696;2.114;2024-01-15T04:38:54;99201.28;;;1.02;85.40
12536;BME280;6334;48.696;2.114;2024-01-15T04:41:28;99202.36;;;1.17;85.17
12536;BME280;6334;48.696;2.114;2024-01-15T04:43:59;99198.31;;;0.90;85.94
12536;BME280;6334;48.696;2.114;2024-01-15T04:46:28;99199.67;;;1.11;85.58
12536;BME280;6334;48.696;2.114;2024-01-15T04:48:59;99197.73;;;1.00;86.12
12536;BME280;6334;48.696;2.114;2024-01-15T04:51:31;99192.34;;;1.03;86.05
12536;BME280;6334;48.696;2.114;2024-01-15T04:54:04;99186.23;;;1.12;85.47
12536;BME280;6334;48.696;2.114;2024-01-15T04:56:34;99182.88;;;1.25;84.92
12536;BME280;6334;48.696;2.114;2024-01-15T04:59:04;99186.86;;;1.15;85.98
12536;BME280;6334;48.696;2.114;2024-01-15T05:01:35;99186.92;;;1.00;86.60
12536;BME280;6334;48.696;2.114;2024-01-15T05:04:06;99186.92;;;1.21;85.40
12536;BME280;6334;48.696;2.114;2024-01-15T05:06:36;99186.72;;;1.18;86.03
12536;BME280;6334;48.696;2.114;2024-01-15T05:09:07;99191.07;;;1.12;86.23
12536;BME280;6334;48.696;2.114;2024-01-15T05:11:37;99192.43;;;1.15;85.89
12536;BME280;6334;48.696;2.114;2024-01-15T05:14:08;99191.52;;;1.29;85.55
12536;BME280;6334;48.696;2.114;2024-01-15T05:16:50;99183.16;;;1.22;85.36
12536;BME280;6334;48.696;2.114;2024-01-15T05:19:11;99185.16;;;0.96;86.37
12536;BME280;6334;48.696;2.114;2024-01-15T05:21:40;99188.77;;;0.91;86.63
12536;BME280;6334;48.696;2.114;2024-01-15T05:24:10;99177.37;;;1.10;86.61
12536;BME280;6334;48.696;2.114;2024-01-15T05:26:40;99180.95;;;1.15;86.01
12536;BME280;6334;48.696;2.114;2024-01-15T05:29:10;99186.60;;;0.94;86.63
12536;BME280;6334;48.696;2.114;2024-01-15T05:31:39;99183.69;;;1.26;86.46
12536;BME280;6334;48.696;2.114;2024-01-15T05:34:10;99179.86;;;1.35;85.34
12536;BME280;6334;48.696;2.114;2024-01-15T05:36:41;99182.41;;;1.13;86.16
12536;BME280;6334;48.696;2.114;2024-01-15T05:39:12;99179.84;;;1.32;86.11
12536;BME280;6334;48.696;2.114;2024-01-15T05:41:43;99175.02;;;0.99;87.28
12536;BME280;6334;48.696;2.114;2024-01-15T05:44:18;99170.48;;;1.10;87.70
12536;BME280;6334;48.696;2.114;2024-01-15T05:46:48;99167.55;;;1.17;87.04
12536;BME280;6334;48.696;2.114;2024-01-15T05:49:18;99166.06;;;1.11;87.88
12536;BME280;6334;48.696;2.114;2024-01-15T05:51:49;99163.19;;;1.24;86.92
12536;BME280;6334;48.696;2.114;2024-01-15T05:54:20;99163.72;;;1.35;86.65
12536;BME280;6334;48.696;2.114;2024-01-15T05:56:50;99167.76;;;1.43;86.47
12536;BME280;6334;48.696;2.114;2024-01-15T05:59:19;99164.06;;;1.05;86.77
12536;BME280;6334;48.696;2.114;2024-01-15T06:01:52;99162.08;;;1.27;87.57
12536;BME280;6334;48.696;2.114;2024-01-15T06:04:23;99160.84;;;1.24;86.81
12536;BME280;6334;48.696;2.114;2024-01-15T06:06:53;99158.78;;;1.33;87.04
12536;BME280;6334;48.696;2.114;2024-01-15T06:09:24;99162.32;;;1.12;87.58
12536;BME280;6334;48.696;2.114;2024-01-15T06:11:55;99162.58;;;1.49;86.74
12536;BME280;6334;48.696;2.114;2024-01-15T06:14:24;99158.77;;;1.23;86.95
12536;BME280;6334;48.696;2.114;2024-01-15T06:16:57;99156.80;;;1.38;87.01
12536;BME280;6334;48.696;2.114;2024-01-15T06:19:27;99156.80;;;1.45;86.62
12536;BME280;6334;48.696;2.114;2024-01-15T06:22:00;99158.61;;;1.37;87.44
12536;BME280;6334;48.696;2.114;2024-01-15T06:24:32;99161.23;;;1.55;86.73
12536;BME280;6334;48.696;2.114;2024-01-15T06:27:06;99160.18;;;1.24;87.41
12536;BME280;6334;48.696;2.114;2024-01-15T06:29:37;99159.17;;;1.63;86.38
12536;BME280;6334;48.696;2.114;2024-01-15T06:32:06;99156.70;;;1.35;87.32
12536;BME280;6334;48.696;2.114;2024-01-15T06:34:35;99156.81;;;1.33;87.85
12536;BME280;6334;48.696;2.114;2024-01-15T06:37:05;99157.14;;;1.41;87.50
12536;BME280;6334;48.696;2.114;2024-01-15T06:39:36;99171.77;;;1.51;87.75
12536;BME280;6334;48.696;2.114;2024-01-15T06:42:06;99166.29;;;1.35;87.12
12536;BME280;6334;48.696;2.114;2024-01-15T06:44:36;99167.12;;;1.52;87.41
12536;BME280;6334;48.696;2.114;2024-01-15T06:47:08;99169.77;;;1.41;86.65
12536;BME280;6334;48.696;2.114;2024-01-15T06:49:41;99165.55;;;2.15;89.01
12536;BME280;6334;48.696;2.114;2024-01-15T06:52:12;99168.89;;;1.66;87.45
12536;BME280;6334;48.696;2.114;2024-01-15T06:54:42;99165.78;;;1.69;87.34
12536;BME280;6334;48.696;2.114;2024-01-15T06:57:13;99172.77;;;1.70;86.74
12536;BME280;6334;48.696;2.114;2024-01-15T06:59:43;99167.27;;;1.58;87.10
12536;BME280;6334;48.696;2.114;2024-01-15T07:02:14;99171.44;;;1.29;87.45
12536;BME280;6334;48.696;2.114;2024-01-15T07:04:44;99174.69;;;1.64;86.90
12536;BME280;6334;48.696;2.114;2024-01-15T07:07:15;99180.17;;;1.48;87.60
12536;BME280;6334;48.696;2.114;2024-01-15T07:09:45;99176.08;;;1.65;86.47
12536;BME280;6334;48.696;2.114;2024-01-15T07:12:15;99184.61;;;1.82;86.47
12536;BME280;6334;48.696;2.114;2024-01-15T07:14:46;99176.75;;;1.49;86.43
12536;BME280;6334;48.696;2.114;2024-01-15T07:17:17;99170.39;;;1.77;86.04
12536;BME280;6334;48.696;2.114;2024-01-15T07:19:47;99175.17;;;1.72;86.23
12536;BME280;6334;48.696;2.114;2024-01-15T07:22:18;99179.88;;;1.67;86.39
12536;BME280;6334;48.696;2.114;2024-01-15T07:24:47;99177.63;;;1.48;87.19
12536;BME280;6334;48.696;2.114;2024-01-15T07:27:18;99187.20;;;1.60;87.21
12536;BME280;6334;48.696;2.114;2024-01-15T07:29:49;99187.88;;;1.31;87.45
12536;BME280;6334;48.696;2.114;2024-01-15T07:32:20;99197.77;;;1.45;87.93
12536;BME280;6334;48.696;2.114;2024-01-15T07:34:50;99199.53;;;1.72;87.15
12536;BME280;6334;48.696;2.114;2024-01-15T07:37:21;99182.95;;;1.55;87.21
12536;BME280;6334;48.696;2.114;2024-01-15T07:39:51;99186.67;;;1.57;87.85
12536;BME280;6334;48.696;2.114;2024-01-15T07:42:22;99189.49;;;1.67;87.83
12536;BME280;6334;48.696;2.114;2024-01-15T07:44:52;99189.89;;;1.75;86.96
12536;BME280;6334;48.696;2.114;2024-01-15T07:47:23;99198.01;;;1.75;87.41
12536;BME280;6334;48.696;2.114;2024-01-15T07:49:53;99194.86;;;1.63;86.86
12536;BME280;6334;48.696;2.114;2024-01-15T07:52:24;99201.73;;;1.69;87.03
12536;BME280;6334;48.696;2.114;2024-01-15T07:54:54;99208.41;;;1.76;87.16
12536;BME280;6334;48.696;2.114;2024-01-15T07:57:24;99210.86;;;1.52;87.97
12536;BME280;6334;48.696;2.114;2024-01-15T07:59:55;99218.85;;;1.71;87.44
12536;BME280;6334;48.696;2.114;2024-01-15T08:02:26;99214.03;;;1.72;87.85
12536;BME280;6334;48.696;2.114;2024-01-15T08:04:56;99219.59;;;1.48;88.15
12536;BME280;6334;48.696;2.114;2024-01-15T08:07:26;99220.58;;;1.39;88.82
12536;BME280;6334;48.696;2.114;2024-01-15T08:09:57;99224.26;;;1.85;87.95
12536;BME280;6334;48.696;2.114;2024-01-15T08:12:28;99222.75;;;1.67;88.53
12536;BME280;6334;48.696;2.114;2024-01-15T08:14:58;99223.69;;;1.78;87.54
12536;BME280;6334;48.696;2.114;2024-01-15T08:17:28;99236.14;;;1.86;88.11
12536;BME280;6334;48.696;2.114;2024-01-15T08:19:59;99231.37;;;1.83;87.48
12536;BME280;6334;48.696;2.114;2024-01-15T08:22:29;99238.36;;;1.92;87.17
12536;BME280;6334;48.696;2.114;2024-01-15T08:25:00;99237.16;;;1.65;89.04
12536;BME280;6334;48.696;2.114;2024-01-15T08:27:30;99244.02;;;1.93;87.61
12536;BME280;6334;48.696;2.114;2024-01-15T08:30:02;99241.30;;;1.60;88.31
12536;BME280;6334;48.696;2.114;2024-01-15T08:32:32;99244.25;;;1.83;88.12
12536;BME280;6334;48.696;2.114;2024-01-15T08:35:03;99242.72;;;1.69;89.60
12536;BME280;6334;48.696;2.114;2024-01-15T08:37:33;99250.29;;;1.52;89.61
12536;BME280;6334;48.696;2.114;2024-01-15T08:40:04;99251.61;;;1.81;88.73
12536;BME280;6334;48.696;2.114;2024-01-15T08:42:34;99258.35;;;1.61;90.03
12536;BME280;6334;48.696;2.114;2024-01-15T08:45:06;99261.02;;;1.79;88.56
12536;BME280;6334;48.696;2.114;2024-01-15T08:47:36;99264.65;;;1.88;89.10
12536;BME280;6334;48.696;2.114;2024-01-15T08:50:07;99267.17;;;1.71;89.04
12536;BME280;6334;48.696;2.114;2024-01-15T08:52:38;99268.45;;;1.82;88.51
12536;BME280;6334;48.696;2.114;2024-01-15T08:55:09;99278.19;;;1.69;88.82
12536;BME280;6334;48.696;2.114;2024-01-15T08:57:39;99276.28;;;1.97;88.37
12536;BME280;6334;48.696;2.114;2024-01-15T09:00:10;99280.25;;;1.90;88.46
12536;BME280;6334;48.696;2.114;2024-01-15T09:02:41;99291.64;;;2.05;87.89
12536;BME280;6334;48.696;2.114;2024-01-15T09:05:11;99287.73;;;2.00;88.79
12536;BME280;6334;48.696;2.114;2024-01-15T09:07:41;99286.48;;;1.91;88.63
12536;BME280;6334;48.696;2.114;2024-01-15T09:10:12;99288.44;;;2.13;87.74
12536;BME280;6334;48.696;2.114;2024-01-15T09:12:43;99283.08;;;2.19;87.14
12536;BME280;6334;48.696;2.114;2024-01-15T09:15:15;99298.61;;;2.29;86.96
12536;BME280;6334;48.696;2.114;2024-01-15T09:17:45;99294.24;;;2.48;85.98
12536;BME280;6334;48.696;2.114;2024-01-15T09:20:15;99297.99;;;2.43;85.95
12536;BME280;6334;48.696;2.114;2024-01-15T09:22:46;99296.41;;;1.98;87.68
12536;BME280;6334;48.696;2.114;2024-01-15T09:25:16;99293.64;;;2.17;86.36
12536;BME280;6334;48.696;2.114;2024-01-15T09:27:47;99309.16;;;2.17;86.40
12536;BME280;6334;48.696;2.114;2024-01-15T09:30:17;99307.72;;;2.40;85.81
12536;BME280;6334;48.696;2.114;2024-01-15T09:32:48;99308.41;;;2.41;85.50
12536;BME280;6334;48.696;2.114;2024-01-15T09:35:18;99310.16;;;2.53;85.00
12536;BME280;6334;48.696;2.114;2024-01-15T09:37:49;99315.92;;;2.47;84.45
12536;BME280;6334;48.696;2.114;2024-01-15T09:40:20;99314.91;;;2.46;84.76
12536;BME280;6334;48.696;2.114;2024-01-15T09:42:50;99315.45;;;2.78;83.61
12536;BME280;6334;48.696;2.114;2024-01-15T09:45:20;99308.84;;;2.63;83.82
12536;BME280;6334;48.696;2.114;2024-01-15T09:47:51;99312.23;;;2.76;83.82
12536;BME280;6334;48.696;2.114;2024-01-15T09:50:22;99306.05;;;2.76;83.54
12536;BME280;6334;48.696;2.114;2024-01-15T09:52:53;99315.74;;;2.76;83.51
12536;BME280;6334;48.696;2.114;2024-01-15T09:55:23;99315.48;;;2.53;84.36
12536;BME280;6334;48.696;2.114;2024-01-15T09:57:54;99312.58;;;2.81;83.39
12536;BME280;6334;48.696;2.114;2024-01-15T10:00:23;99316.77;;;2.69;82.84
12536;BME280;6334;48.696;2.114;2024-01-15T10:02:54;99324.57;;;2.60;83.07
12536;BME280;6334;48.696;2.114;2024-01-15T10:05:25;99313.39;;;2.70;82.67
12536;BME280;6334;48.696;2.114;2024-01-15T10:07:55;99319.06;;;2.42;84.01
12536;BME280;6334;48.696;2.114;2024-01-15T10:10:25;99330.19;;;2.82;82.38
12536;BME280;6334;48.696;2.114;2024-01-15T10:12:56;99328.58;;;2.89;82.22
12536;BME280;6334;48.696;2.114;2024-01-15T10:15:27;99329.63;;;2.86;82.67
12536;BME280;6334;48.696;2.114;2024-01-15T10:17:57;99325.80;;;2.61;83.02
12536;BME280;6334;48.696;2.114;2024-01-15T10:20:27;99321.41;;;2.98;83.17
12536;BME280;6334;48.696;2.114;2024-01-15T10:22:58;99328.91;;;2.68;82.64
12536;BME280;6334;48.696;2.114;2024-01-15T10:25:29;99325.89;;;2.78;82.54
12536;BME280;6334;48.696;2.114;2024-01-15T10:28:02;99330.12;;;2.95;81.28
12536;BME280;6334;48.696;2.114;2024-01-15T10:30:32;99333.36;;;3.01;81.19
12536;BME280;6334;48.696;2.114;2024-01-15T10:33:03;99336.67;;;3.05;80.57
12536;BME280;6334;48.696;2.114;2024-01-15T10:35:33;99331.86;;;3.00;80.79
12536;BME280;6334;48.696;2.114;2024-01-15T10:38:03;99336.83;;;3.16;80.37
12536;BME280;6334;48.696;2.114;2024-01-15T10:40:34;99345.75;;;3.00;80.53
12536;BME280;6334;48.696;2.114;2024-01-15T10:43:04;99352.27;;;3.12;79.42
12536;BME280;6334;48.696;2.114;2024-01-15T10:45:35;99354.55;;;2.79;80.07
12536;BME280;6334;48.696;2.114;2024-01-15T10:48:06;99357.62;;;3.03;79.31
12536;BME280;6334;48.696;2.114;2024-01-15T10:50:36;99356.25;;;3.09;79.36
12536;BME280;6334;48.696;2.114;2024-01-15T10:53:07;99349.31;;;2.80;80.36
12536;BME280;6334;48.696;2.114;2024-01-15T10:55:38;99341.84;;;2.73;80.67
12536;BME280;6334;48.696;2.114;2024-01-15T10:58:08;99349.34;;;2.87;80.32
12536;BME280;6334;48.696;2.114;2024-01-15T11:00:38;99349.78;;;2.79;79.94
12536;BME280;6334;48.696;2.114;2024-01-15T11:03:09;99354.26;;;3.05;78.18
12536;BME280;6334;48.696;2.114;2024-01-15T11:05:41;99350.23;;;2.94;77.22
12536;BME280;6334;48.696;2.114;2024-01-15T11:08:10;99356.69;;;3.24;76.57
12536;BME280;6334;48.696;2.114;2024-01-15T11:10:44;99346.45;;;3.16;76.83
12536;BME280;6334;48.696;2.114;2024-01-15T11:13:14;99346.16;;;2.97;76.58
12536;BME280;6334;48.696;2.114;2024-01-15T11:15:59;99348.10;;;3.04;75.44
12536;BME280;6334;48.696;2.114;2024-01-15T11:18:31;99335.27;;;3.05;73.44
12536;BME280;6334;48.696;2.114;2024-01-15T11:23:55;99344.25;;;3.06;72.44
12536;BME280;6334;48.696;2.114;2024-01-15T11:29:06;99347.38;;;3.19;74.19
12536;BME280;6334;48.696;2.114;2024-01-15T11:34:10;99344.66;;;3.20;72.00
12536;BME280;6334;48.696;2.114;2024-01-15T11:41:58;99346.62;;;3.19;71.10
12536;BME280;6334;48.696;2.114;2024-01-15T11:44:28;99339.42;;;3.37;70.27
12536;BME280;6334;48.696;2.114;2024-01-15T11:47:04;99344.02;;;3.22;70.28
12536;BME280;6334;48.696;2.114;2024-01-15T11:49:59;99339.97;;;3.30;70.48
12536;BME280;6334;48.696;2.114;2024-01-15T11:52:34;99336.80;;;3.23;71.50
12536;BME280;6334;48.696;2.114;2024-01-15T11:55:10;99339.90;;;3.33;70.77
12536;BME280;6334;48.696;2.114;2024-01-15T11:57:41;99343.23;;;3.04;68.06
12536;BME280;6334;48.696;2.114;2024-01-15T12:00:11;99328.75;;;3.13;67.73
12536;BME280;6334;48.696;2.114;2024-01-15T12:02:42;99332.16;;;3.31;68.91
12536;BME280;6334;48.696;2.114;2024-01-15T12:05:12;99337.58;;;3.42;68.21
12536;BME280;6334;48.696;2.114;2024-01-15T12:07:43;99335.59;;;3.14;68.51
12536;BME280;6334;48.696;2.114;2024-01-15T12:10:19;99338.46;;;3.14;69.02
12536;BME280;6334;48.696;2.114;2024-01-15T12:12:58;99336.65;;;3.28;68.70
12536;BME280;6334;48.696;2.114;2024-01-15T12:15:29;99339.42;;;3.34;67.92
12536;BME280;6334;48.696;2.114;2024-01-15T12:18:01;99336.31;;;3.38;67.70
12536;BME280;6334;48.696;2.114;2024-01-15T12:20:30;99337.77;;;3.50;67.52
12536;BME280;6334;48.696;2.114;2024-01-15T12:23:01;99334.58;;;3.56;68.01
12536;BME280;6334;48.696;2.114;2024-01-15T12:25:32;99338.13;;;3.53;67.05
12536;BME280;6334;48.696;2.114;2024-01-15T12:28:02;99345.08;;;3.48;68.21
12536;BME280;6334;48.696;2.114;2024-01-15T12:30:34;99335.12;;;3.31;67.01
12536;BME280;6334;48.696;2.114;2024-01-15T12:33:04;99338.06;;;3.45;66.92
12536;BME280;6334;48.696;2.114;2024-01-15T12:35:35;99335.98;;;3.41;66.48
12536;BME280;6334;48.696;2.114;2024-01-15T12:38:05;99337.87;;;3.51;66.35
12536;BME280;6334;48.696;2.114;2024-01-15T12:40:36;99336.38;;;3.68;66.68
12536;BME280;6334;48.696;2.114;2024-01-15T12:43:06;99341.75;;;3.74;66.94
12536;BME280;6334;48.696;2.114;2024-01-15T12:45:37;99334.73;;;3.68;64.20
12536;BME280;6334;48.696;2.114;2024-01-15T12:48:07;99336.59;;;3.76;64.76
12536;BME280;6334;48.696;2.114;2024-01-15T12:50:38;99343.41;;;3.78;65.00
12536;BME280;6334;48.696;2.114;2024-01-15T12:53:09;99334.95;;;3.82;62.32
12536;BME280;6334;48.696;2.114;2024-01-15T12:55:40;99333.73;;;3.84;62.04
12536;BME280;6334;48.696;2.114;2024-01-15T12:58:10;99336.67;;;3.77;62.80
12536;BME280;6334;48.696;2.114;2024-01-15T13:00:41;99326.89;;;3.79;64.27
12536;BME280;6334;48.696;2.114;2024-01-15T13:03:12;99332.41;;;4.06;61.18
12536;BME280;6334;48.696;2.114;2024-01-15T13:05:42;99324.41;;;3.80;64.52
12536;BME280;6334;48.696;2.114;2024-01-15T13:08:12;99330.83;;;3.83;62.41
12536;BME280;6334;48.696;2.114;2024-01-15T13:10:43;99324.87;;;3.94;61.66
12536;BME280;6334;48.696;2.114;2024-01-15T13:13:13;99326.75;;;3.92;61.42
12536;BME280;6334;48.696;2.114;2024-01-15T13:15:44;99317.59;;;3.85;62.72
12536;BME280;6334;48.696;2.114;2024-01-15T13:18:14;99324.08;;;3.78;61.14
12536;BME280;6334;48.696;2.114;2024-01-15T13:20:45;99322.28;;;3.82;62.13
12536;BME280;6334;48.696;2.114;2024-01-15T13:23:15;99317.75;;;3.78;59.78
12536;BME280;6334;48.696;2.114;2024-01-15T13:25:46;99327.02;;;3.70;62.37
12536;BME280;6334;48.696;2.114;2024-01-15T13:28:16;99318.84;;;3.68;60.76
12536;BME280;6334;48.696;2.114;2024-01-15T13:30:47;99318.20;;;3.50;61.01
12536;BME280;6334;48.696;2.114;2024-01-15T13:33:17;99321.44;;;3.55;61.76
12536;BME280;6334;48.696;2.114;2024-01-15T13:35:48;99319.18;;;3.69;61.96
12536;BME280;6334;48.696;2.114;2024-01-15T13:38:17;99317.48;;;3.58;61.01
12536;BME280;6334;48.696;2.114;2024-01-15T13:40:48;99312.61;;;3.68;61.99
12536;BME280;6334;48.696;2.114;2024-01-15T13:43:19;99313.81;;;3.59;60.31
12536;BME280;6334;48.696;2.114;2024-01-15T13:45:50;99314.12;;;3.76;61.92
12536;BME280;6334;48.696;2.114;2024-01-15T13:48:20;99310.13;;;3.65;61.60
12536;BME280;6334;48.696;2.114;2024-01-15T13:50:51;99314.77;;;3.53;60.14